Latest Coastal Weather Observations for Mornington Island Airport

IDQ60701

Issued at 5:03 am EST Monday 27 June 2016 (issued every 10 minutes, with the page automatically refreshed every 10 minutes)

About coastal observations | Map of coastal stations | Coastal observations for QLD | Marine services | Other Formats
Station Details ID: 029182 Name: MORNINGTON ISLAND AIRPORT Lat: -16.66 Lon: 139.17 Height: 9.0 m
Data from the previous 72 hours. | See also: Recent months at Mornington Island Airport
Date/Time
EST
Temp
°C
Wind Pressure Rain since
9am
mm
Weather Cloud Vis
km
Sea
Height
m
Swell
Dir  Spd
kts
Gust
kts
hPa Trend Height
m
Period
s
Dir
27/05:00am 21.5 WNW 3 4 1013.3 - 0.0 - - - - - - -
27/04:30am 22.3 NE 4 5 1013.0 - 0.0 - - - - - - -
27/04:00am 21.7 NE 3 4 1013.1 - 0.0 - - - - - - -
27/03:30am 21.5 NE 3 3 1013.1 - 0.0 - - - - - - -
27/03:00am 22.0 NE 3 3 1013.2 - 0.0 - - - - - - -
27/02:30am 22.0 NE 3 4 1013.4 - 0.0 - - - - - - -
27/02:00am 22.5 NNE 5 6 1013.7 - 0.0 - - - - - - -
27/01:30am 22.5 NNE 5 7 1013.8 - 0.0 - - - - - - -
27/01:00am 22.0 NNE 6 7 1013.9 - 0.0 - - - - - - -
27/12:30am 21.8 NE 5 6 1013.9 - 0.0 - - - - - - -
27/12:00am 21.8 NE 5 5 1013.9 - 0.0 - - - - - - -
 
Date/Time
EST
Temp
°C
Wind Pressure Rain since
9am
mm
Weather Cloud Vis
km
Sea
Height
m
Swell
Dir  Spd
kts
Gust
kts
hPa Trend Height
m
Period
s
Dir
26/11:30pm 22.0 NE 5 6 1014.1 - 0.0 - - - - - - -
26/11:00pm 22.0 NE 5 6 1014.1 - 0.0 - - - - - - -
26/10:30pm 21.9 NE 5 6 1014.2 - 0.0 - - - - - - -
26/10:00pm 22.0 NE 6 7 1014.3 - 0.0 - - - - - - -
26/09:30pm 21.9 ENE 5 6 1014.2 - 0.0 - - - - - - -
26/09:00pm 22.1 ENE 5 6 1014.1 - 0.0 - - - - - - -
26/08:30pm 22.6 ENE 4 5 1014.0 - 0.0 - - - - - - -
26/08:00pm 22.5 ESE 3 4 1013.7 - 0.0 - - - - - - -
26/07:30pm 22.9 ESE 3 4 1013.2 - 0.0 - - - - - - -
26/07:00pm 23.3 SE 3 4 1012.8 - 0.0 - - - - - - -
26/06:30pm 23.7 SSE 4 5 1012.6 - 0.0 - - - - - - -
26/06:00pm 25.0 SSE 4 5 1012.4 - 0.0 - - - - - - -
26/05:30pm 26.5 SSE 3 4 1012.1 - 0.0 - - - - - - -
26/05:00pm 26.4 SSE 4 6 1011.8 - 0.0 - - - - - - -
26/04:30pm 26.7 SSE 5 7 1011.7 - 0.0 - - - - - - -
26/04:00pm 26.3 SSE 6 9 1011.7 - 0.0 - - - - - - -
26/03:30pm 26.8 SE 6 9 1011.9 - 0.0 - - - - - - -
26/03:00pm 27.7 W 6 8 1012.1 - 0.0 - - - - - - -
26/02:30pm 27.4 W 6 8 1012.2 - 0.0 - - - - - - -
26/02:00pm 28.4 SSE 3 7 1012.5 - 0.0 - - - - - - -
26/01:30pm 27.2 SSE 6 9 1013.1 - 0.0 - - - - - - -
26/01:00pm 26.7 SSE 9 13 1013.7 - 0.0 - - - - - - -
26/12:30pm 27.2 SSE 8 11 1014.0 - 0.0 - - - - - - -
26/12:00pm 28.0 SSE 7 11 1014.5 - 0.0 - - - - - - -
26/11:30am 28.6 ESE 7 9 1014.7 - 0.0 - - - - - - -
26/11:00am 27.6 ESE 8 11 1014.9 - 0.0 - - - - - - -
26/10:30am 26.6 E 9 12 1015.1 - 0.0 - - - - - - -
26/10:00am 25.6 ESE 10 13 1015.1 - 0.0 - - - - - - -
26/09:30am 24.6 ESE 11 14 1015.5 - 0.0 - - - - - - -
26/09:00am 23.6 ESE 10 14 1015.3 - 0.0 - - - - - - -
26/08:30am 22.8 ESE 9 15 1015.1 - 0.0 - - - - - - -
26/08:00am 22.4 SE 9 12 1014.7 - 0.0 - - - - - - -
26/07:30am 22.0 SE 8 13 1014.3 - 0.0 - - - - - - -
26/07:00am 21.8 SE 9 11 1014.1 - 0.0 - - - - - - -
26/06:30am 21.6 SE 7 11 1014.1 - 0.0 - - - - - - -
26/06:00am 21.8 SE 8 12 1013.6 - 0.0 - - - - - - -
26/05:30am 22.0 SE 8 13 1013.3 - 0.0 - - - - - - -
26/05:00am 22.3 SE 8 12 1013.2 - 0.0 - - - - - - -
26/04:30am 22.6 SE 9 13 1013.1 - 0.0 - - - - - - -
26/04:00am 22.2 SSE 7 11 1013.1 - 0.0 - - - - - - -
26/03:30am 22.0 SSE 6 9 1013.3 - 0.0 - - - - - - -
26/03:00am 22.2 SSE 6 9 1013.4 - 0.0 - - - - - - -
26/02:30am 22.6 SSE 7 9 1013.5 - 0.0 - - - - - - -
26/02:00am 22.1 SE 7 11 1013.8 - 0.0 - - - - - - -
26/01:30am 21.6 SE 6 8 1014.0 - 0.0 - - - - - - -
26/01:00am 20.3 SE 5 6 1014.2 - 0.0 - - - - - - -
26/12:30am 19.5 SE 4 5 1014.2 - 0.0 - - - - - - -
26/12:00am 19.7 SE 3 4 1014.2 - 0.0 - - - - - - -
 
Date/Time
EST
Temp
°C
Wind Pressure Rain since
9am
mm
Weather Cloud Vis
km
Sea
Height
m
Swell
Dir  Spd
kts
Gust
kts
hPa Trend Height
m
Period
s
Dir
25/11:30pm 19.6 SSE 5 6 1014.2 - 0.0 - - - - - - -
25/11:00pm 19.4 SE 4 4 1014.3 - 0.0 - - - - - - -
25/10:30pm 19.8 SE 3 3 1014.3 - 0.0 - - - - - - -
25/10:00pm 19.9 SE 4 4 1014.2 - 0.0 - - - - - - -
25/09:30pm 20.5 SE 3 4 1014.2 - 0.0 - - - - - - -
25/09:00pm 20.2 SSE 5 6 1014.4 - 0.0 - - - - - - -
25/08:30pm 20.5 SE 5 5 1014.2 - 0.0 - - - - - - -
25/08:00pm 21.1 SE 4 5 1014.1 - 0.0 - - - - - - -
25/07:30pm 22.1 SE 4 5 1013.9 - 0.0 - - - - - - -
25/07:00pm 22.8 SE 4 6 1013.9 - 0.0 - - - - - - -
25/06:30pm 23.5 SE 4 6 1013.8 - 0.0 - - - - - - -
25/06:00pm 24.5 SE 6 9 1013.6 - 0.0 - - - - - - -
25/05:30pm 25.4 SE 8 12 1013.6 - 0.0 - - - - - - -
25/05:00pm 26.0 SE 9 13 1013.5 - 0.0 - - - - - - -
25/04:30pm 26.0 SE 11 18 1013.3 - 0.0 - - - - - - -
25/04:00pm 26.6 ESE 11 17 1013.2 - 0.0 - - - - - - -
25/03:30pm 26.3 ESE 12 19 1013.1 - 0.0 - - - - - - -
25/03:00pm 25.9 SE 11 17 1013.3 - 0.0 - - - - - - -
25/02:30pm 25.0 SE 10 15 1013.6 - 0.0 - - - - - - -
25/02:00pm 24.7 SE 11 17 1014.0 - 0.0 - - - - - - -
25/01:30pm 24.1 SE 12 20 1014.3 - 0.0 - - - - - - -
25/01:00pm 23.4 SSE 11 19 1014.8 - 0.0 - - - - - - -
25/12:30pm 23.6 SSE 11 18 1015.2 - 0.0 - - - - - - -
25/12:00pm 23.5 SE 11 20 1015.3 - 0.0 - - - - - - -
25/11:30am 23.3 SE 12 19 1015.7 - 0.0 - - - - - - -
25/11:00am 22.9 SE 14 23 1016.0 - 0.0 - - - - - - -
25/10:30am 22.6 SSE 13 22 1016.1 - 0.0 - - - - - - -
25/10:00am 22.3 SSE 13 21 1016.2 - 0.0 - - - - - - -
25/09:30am 22.0 SSE 13 21 1016.0 - 0.0 - - - - - - -
25/09:20am 21.7 SSE 15 26 1016.0 - 0.0 - - - - - - -
25/09:00am 21.6 SSE 14 26 1016.0 - 0.0 - - - - - - -
25/08:30am 21.5 SSE 13 22 1015.6 - 0.0 - - - - - - -
25/08:00am 21.2 SSE 13 20 1015.5 - 0.0 - - - - - - -
25/07:30am 21.4 SE 13 21 1015.3 - 0.0 - - - - - - -
25/07:00am 21.6 SSE 13 20 1015.0 - 0.0 - - - - - - -
25/06:30am 21.7 SE 13 21 1014.8 - 0.0 - - - - - - -
25/06:00am 21.9 SE 12 19 1014.7 - 0.0 - - - - - - -
25/05:30am 22.2 SE 13 20 1014.7 - 0.0 - - - - - - -
25/05:00am 22.3 SE 11 19 1014.5 - 0.0 - - - - - - -
25/04:30am 22.6 SE 11 19 1014.1 - 0.0 - - - - - - -
25/04:00am 23.0 SE 11 18 1013.8 - 0.0 - - - - - - -
25/03:30am 23.0 SE 11 17 1013.8 - 0.0 - - - - - - -
25/03:00am 23.2 SE 11 18 1013.9 - 0.0 - - - - - - -
25/02:30am 23.4 SE 11 18 1013.9 - 0.0 - - - - - - -
25/02:00am 23.7 SE 12 17 1014.0 - 0.0 - - - - - - -
25/01:30am 23.9 SE 10 19 1014.2 - 0.0 - - - - - - -
25/01:00am 24.0 SE 10 15 1014.2 - 0.0 - - - - - - -
25/12:30am 24.3 SE 11 15 1014.2 - 0.0 - - - - - - -
25/12:00am 24.5 SE 11 15 1014.3 - 0.0 - - - - - - -
 
Date/Time
EST
Temp
°C
Wind Pressure Rain since
9am
mm
Weather Cloud Vis
km
Sea
Height
m
Swell
Dir  Spd
kts
Gust
kts
hPa Trend Height
m
Period
s
Dir
24/11:30pm 25.0 SE 11 16 1014.6 - 0.0 - - - - - - -
24/11:00pm 24.6 SE 9 13 1014.7 - 0.0 - - - - - - -
24/10:30pm 21.9 SSE 6 9 1014.7 - 0.0 - - - - - - -
24/10:00pm 20.6 SE 5 7 1014.5 - 0.0 - - - - - - -
24/09:30pm 20.1 SE 5 7 1014.3 - 0.0 - - - - - - -
24/09:00pm 20.0 SE 5 5 1014.1 - 0.0 - - - - - - -
24/08:30pm 21.0 ESE 4 5 1014.0 - 0.0 - - - - - - -
24/08:00pm 22.2 ESE 4 5 1013.9 - 0.0 - - - - - - -
24/07:30pm 22.7 ESE 5 6 1013.6 - 0.0 - - - - - - -
24/07:00pm 23.7 ESE 5 6 1013.4 - 0.0 - - - - - - -
24/06:30pm 24.5 ESE 5 6 1013.1 - 0.0 - - - - - - -
24/06:00pm 26.0 ESE 6 8 1013.0 - 0.0 - - - - - - -
24/05:30pm 27.0 SE 6 7 1012.8 - 0.0 - - - - - - -
24/05:00pm 28.1 SE 6 9 1012.5 - 0.0 - - - - - - -
24/04:30pm 29.0 ESE 8 11 1012.5 - 0.0 - - - - - - -
24/04:00pm 29.1 ESE 10 13 1012.6 - 0.0 - - - - - - -
24/03:30pm 29.1 ESE 10 14 1012.7 - 0.0 - - - - - - -
24/03:00pm 29.0 ESE 10 14 1012.8 - 0.0 - - - - - - -
24/02:30pm 29.0 ESE 11 15 1012.9 - 0.0 - - - - - - -
24/02:00pm 29.2 ESE 11 16 1013.3 - 0.0 - - - - - - -
24/01:30pm 28.7 SE 11 17 1013.6 - 0.0 - - - - - - -
24/01:00pm 28.5 SE 11 16 1014.0 - 0.0 - - - - - - -
24/12:30pm 28.2 SE 10 15 1014.4 - 0.0 - - - - - - -
24/12:00pm 27.6 SE 12 16 1014.7 - 0.0 - - - - - - -
24/11:30am 27.5 SE 8 13 1015.1 - 0.0 - - - - - - -
24/11:00am 25.4 SE 10 14 1015.3 - 0.0 - - - - - - -
24/10:30am 25.0 SSE 9 14 1015.3 - 0.0 - - - - - - -
24/10:00am 23.9 SSE 9 14 1015.3 - 0.0 - - - - - - -
24/09:30am 24.1 SE 10 15 1015.2 - 0.0 - - - - - - -
24/09:00am 23.9 SE 7 12 1014.9 - 0.0 - - - - - - -
24/08:30am 23.2 SE 7 11 1014.7 - 0.0 - - - - - - -
24/08:00am 21.4 SE 5 7 1014.3 - 0.0 - - - - - - -
24/07:30am 20.6 S 4 6 1014.0 - 0.0 - - - - - - -
24/07:00am 20.1 SSE 5 6 1013.6 - 0.0 - - - - - - -
24/06:30am 20.3 S 5 9 1013.4 - 0.0 - - - - - - -
24/06:00am 20.1 S 5 8 1012.9 - 0.0 - - - - - - -
24/05:30am 19.5 SSW 3 5 1012.5 - 0.0 - - - - - - -

Other Formats:

Comma delimited format used in spreadsheet applications
http://www.bom.gov.au/fwo/IDQ60701/IDQ60701.94254.axf

JavaScript Object Notation format (JSON) in row-major order
http://www.bom.gov.au/fwo/IDQ60701/IDQ60701.94254.json